Time;durP1;ratioP1;P1;durP2;ratioP2;P2;SDS_P1;SDS_P2;PMS_P1;PMS_P2;Temp;Humidity;BMP_temperature;BMP_pressure;BME280_temperature;BME280_humidity;BME280_pressure;Samples;Min_cycle;Max_cycle;Signal;HPM_P1;HPM_P2
2022/05/27 00:01:09;;;;;;;10.83;8.70;;;;;;;;;;4999758;28;20239;-71
2022/05/27 00:03:39;;;;;;;12.40;8.90;;;;;;;;;;4986726;28;20254;-72
2022/05/27 00:06:05;;;;;;;11.47;8.33;;;;;;;;;;5006061;28;20318;-71
2022/05/27 00:08:33;;;;;;;14.03;9.10;;;;;;;;;;5026500;28;20219;-73
2022/05/27 00:11:02;;;;;;;9.63;8.63;;;;;;;;;;5008888;28;20277;-72
2022/05/27 00:13:30;;;;;;;11.30;8.07;;;;;;;;;;5023117;28;20242;-71
2022/05/27 00:16:00;;;;;;;10.37;8.57;;;;;;;;;;4996221;28;20755;-73
2022/05/27 00:18:26;;;;;;;12.07;8.43;;;;;;;;;;5030239;28;20265;-73
2022/05/27 00:20:51;;;;;;;9.93;8.93;;;;;;;;;;5016272;28;20236;-72
2022/05/27 00:23:20;;;;;;;10.07;8.13;;;;;;;;;;5006523;28;20231;-71
2022/05/27 00:25:45;;;;;;;9.37;7.90;;;;;;;;;;4991188;28;20232;-72
2022/05/27 00:28:16;;;;;;;11.50;8.37;;;;;;;;;;5005237;28;20274;-70
2022/05/27 00:30:46;;;;;;;11.47;8.83;;;;;;;;;;5039064;28;20231;-73
2022/05/27 00:33:16;;;;;;;10.47;8.63;;;;;;;;;;4992167;28;20225;-73
2022/05/27 00:35:42;;;;;;;11.20;8.70;;;;;;;;;;5002141;28;20259;-73
2022/05/27 00:38:09;;;;;;;11.43;8.93;;;;;;;;;;4981960;28;20839;-71
2022/05/27 00:40:39;;;;;;;8.97;8.07;;;;;;;;;;5039534;28;20231;-72
2022/05/27 00:43:05;;;;;;;12.20;8.30;;;;;;;;;;5004776;28;20231;-73
2022/05/27 00:45:34;;;;;;;10.43;8.67;;;;;;;;;;4988826;28;20221;-72
2022/05/27 00:48:05;;;;;;;10.97;8.57;;;;;;;;;;5002966;28;20276;-73
2022/05/27 00:50:40;;;;;;;15.13;8.63;;;;;;;;;;5016941;28;20220;-72
2022/05/27 00:53:06;;;;;;;12.60;8.93;;;;;;;;;;4990013;28;20337;-73
2022/05/27 00:55:40;;;;;;;10.33;8.37;;;;;;;;;;4987261;28;20220;-72
2022/05/27 00:58:14;;;;;;;11.67;8.83;;;;;;;;;;4989460;28;20224;-73
2022/05/27 01:00:39;;;;;;;12.50;8.27;;;;;;;;;;5005813;28;20260;-73
2022/05/27 01:03:08;;;;;;;10.77;8.40;;;;;;;;;;5014810;28;20250;-73
2022/05/27 01:05:33;;;;;;;12.87;8.30;;;;;;;;;;4998113;28;20780;-73
2022/05/27 01:08:01;;;;;;;15.60;8.83;;;;;;;;;;4989075;28;20232;-72
2022/05/27 01:10:26;;;;;;;13.43;8.23;;;;;;;;;;4983918;28;20288;-72
2022/05/27 01:13:13;;;;;;;11.60;9.27;;;;;;;;;;4996335;28;20227;-72
2022/05/27 01:16:02;;;;;;;12.53;8.33;;;;;;;;;;5010557;28;21058;-72
2022/05/27 01:22:17;;;;;;;12.80;8.03;;;;;;;;;;4988518;28;20232;-72
2022/05/27 01:25:08;;;;;;;12.80;9.00;;;;;;;;;;5019708;28;20236;-72
2022/05/27 01:28:04;;;;;;;11.57;8.33;;;;;;;;;;4990437;28;20302;-71
2022/05/27 01:30:53;;;;;;;9.63;7.73;;;;;;;;;;4995855;28;20234;-73
2022/05/27 01:33:49;;;;;;;12.83;8.03;;;;;;;;;;5004303;28;20212;-72
2022/05/27 01:36:53;;;;;;;9.93;8.20;;;;;;;;;;5009584;28;20215;-72
2022/05/27 01:39:34;;;;;;;12.00;7.90;;;;;;;;;;5003852;28;20806;-72
2022/05/27 01:42:10;;;;;;;10.20;8.13;;;;;;;;;;5007894;28;20219;-72
2022/05/27 01:44:52;;;;;;;14.37;8.13;;;;;;;;;;5022022;28;20232;-73
2022/05/27 01:47:41;;;;;;;14.13;8.13;;;;;;;;;;5001035;28;20277;-72
2022/05/27 01:50:16;;;;;;;10.30;7.73;;;;;;;;;;5019177;28;20225;-72
2022/05/27 01:53:00;;;;;;;12.30;7.50;;;;;;;;;;5001340;28;20235;-72
2022/05/27 01:55:31;;;;;;;13.90;8.30;;;;;;;;;;5004165;28;20644;-71
2022/05/27 01:58:01;;;;;;;11.35;7.93;;;;;;;;;;5000911;28;20217;-72
2022/05/27 02:00:29;;;;;;;11.00;7.93;;;;;;;;;;5016186;28;20228;-71
2022/05/27 02:03:01;;;;;;;11.45;8.00;;;;;;;;;;5013581;28;20255;-73
2022/05/27 02:06:05;;;;;;;11.70;8.10;;;;;;;;;;4990796;28;20273;-72
2022/05/27 02:08:39;;;;;;;12.40;8.03;;;;;;;;;;4991465;28;20224;-71
2022/05/27 02:11:06;;;;;;;11.27;7.40;;;;;;;;;;4999424;28;20595;-71
2022/05/27 02:13:43;;;;;;;12.67;7.67;;;;;;;;;;5004021;28;20212;-70
2022/05/27 02:16:17;;;;;;;11.07;7.33;;;;;;;;;;5028456;28;20248;-72
2022/05/27 02:18:52;;;;;;;12.80;7.80;;;;;;;;;;4979141;28;20220;-72
2022/05/27 02:21:29;;;;;;;11.47;7.37;;;;;;;;;;5010344;28;20713;-72
2022/05/27 02:24:00;;;;;;;10.87;7.73;;;;;;;;;;5017722;28;20273;-71
2022/05/27 02:26:32;;;;;;;9.50;7.03;;;;;;;;;;4981073;28;20224;-71
2022/05/27 02:29:11;;;;;;;10.53;7.53;;;;;;;;;;5002750;28;20224;-71
2022/05/27 02:31:38;;;;;;;11.60;7.13;;;;;;;;;;5024993;28;20302;-71
2022/05/27 02:36:56;;;;;;;11.47;7.73;;;;;;;;;;4997524;28;20228;-72
2022/05/27 02:39:21;;;;;;;13.63;7.67;;;;;;;;;;5002013;28;20715;-71
2022/05/27 02:41:59;;;;;;;10.83;8.30;;;;;;;;;;5021441;28;20234;-72
2022/05/27 02:45:09;;;;;;;12.83;8.60;;;;;;;;;;4996842;28;20223;-73
2022/05/27 02:47:54;;;;;;;14.80;10.10;;;;;;;;;;4924999;29;20825;-71
2022/05/27 02:50:39;;;;;;;13.70;9.20;;;;;;;;;;5016111;28;20228;-73
2022/05/27 02:53:26;;;;;;;11.57;8.53;;;;;;;;;;5006143;28;20324;-72
2022/05/27 02:56:09;;;;;;;12.43;8.30;;;;;;;;;;5015068;28;20720;-71
2022/05/27 02:58:35;;;;;;;14.03;8.23;;;;;;;;;;5005069;28;20238;-71
2022/05/27 03:01:00;;;;;;;10.17;7.63;;;;;;;;;;5004830;28;20239;-72
2022/05/27 03:03:28;;;;;;;12.70;7.70;;;;;;;;;;4990253;28;20296;-73
2022/05/27 03:06:18;;;;;;;13.37;8.03;;;;;;;;;;5005732;28;20277;-73
2022/05/27 03:09:05;;;;;;;12.70;8.30;;;;;;;;;;5039051;28;20258;-73
2022/05/27 03:11:49;;;;;;;14.20;8.00;;;;;;;;;;5007441;28;20603;-72
2022/05/27 03:14:38;;;;;;;11.67;6.00;;;;;;;;;;5000536;28;21223;-73
2022/05/27 03:17:42;;;;;;;8.83;4.30;;;;;;;;;;4986653;28;20232;-73
2022/05/27 03:20:26;;;;;;;10.67;4.27;;;;;;;;;;5008592;28;20227;-73
2022/05/27 03:23:09;;;;;;;10.77;3.90;;;;;;;;;;5038355;28;20223;-72
2022/05/27 03:25:44;;;;;;;8.27;3.43;;;;;;;;;;5038109;28;20311;-72
2022/05/27 03:28:14;;;;;;;9.43;2.90;;;;;;;;;;5017825;28;20319;-72
2022/05/27 03:31:13;;;;;;;12.77;3.33;;;;;;;;;;5006443;28;20236;-73
2022/05/27 03:33:51;;;;;;;10.30;2.90;;;;;;;;;;4982703;28;20270;-73
2022/05/27 03:36:29;;;;;;;11.87;3.27;;;;;;;;;;5033068;28;20246;-73
2022/05/27 03:39:19;;;;;;;8.87;3.20;;;;;;;;;;5021057;28;20220;-74
2022/05/27 03:41:47;;;;;;;6.27;2.80;;;;;;;;;;5023627;28;20307;-73
2022/05/27 03:44:14;;;;;;;9.33;3.30;;;;;;;;;;4986417;28;20223;-73
2022/05/27 03:46:42;;;;;;;18.40;3.43;;;;;;;;;;5007588;28;20274;-72
2022/05/27 03:49:08;;;;;;;8.63;3.30;;;;;;;;;;4979129;28;20692;-73
2022/05/27 03:51:59;;;;;;;9.07;2.90;;;;;;;;;;5030267;28;20761;-74
2022/05/27 03:54:25;;;;;;;9.87;3.03;;;;;;;;;;5005866;28;20234;-74
2022/05/27 03:56:52;;;;;;;7.90;2.90;;;;;;;;;;4988363;28;20919;-72
2022/05/27 03:59:18;;;;;;;11.77;3.00;;;;;;;;;;4991603;28;20701;-72
2022/05/27 04:01:46;;;;;;;10.57;2.90;;;;;;;;;;5005064;28;20228;-74
2022/05/27 04:04:16;;;;;;;9.03;2.73;;;;;;;;;;5003278;28;20256;-73
2022/05/27 04:06:42;;;;;;;9.03;2.80;;;;;;;;;;4981689;28;20221;-73
2022/05/27 04:09:09;;;;;;;9.60;2.97;;;;;;;;;;5001061;28;20225;-73
2022/05/27 04:11:35;;;;;;;9.70;3.27;;;;;;;;;;4989216;28;20223;-73
2022/05/27 04:14:03;;;;;;;9.13;2.97;;;;;;;;;;4972527;28;20285;-73
2022/05/27 04:16:28;;;;;;;10.03;3.13;;;;;;;;;;5004344;28;20310;-73
2022/05/27 04:18:56;;;;;;;11.60;3.27;;;;;;;;;;5004732;28;20633;-73
2022/05/27 04:21:23;;;;;;;6.60;2.63;;;;;;;;;;5015231;28;20235;-72
2022/05/27 04:23:48;;;;;;;11.00;3.20;;;;;;;;;;5025606;28;20851;-73
2022/05/27 04:26:14;;;;;;;10.87;2.63;;;;;;;;;;4997952;28;20212;-73
2022/05/27 04:28:42;;;;;;;6.97;2.70;;;;;;;;;;5031875;28;20309;-72
2022/05/27 04:31:07;;;;;;;11.73;3.00;;;;;;;;;;5007690;28;20287;-73
2022/05/27 04:33:33;;;;;;;10.50;3.10;;;;;;;;;;5004555;28;20236;-73
2022/05/27 04:35:59;;;;;;;15.10;3.57;;;;;;;;;;5006950;28;20226;-73
2022/05/27 04:38:27;;;;;;;6.43;2.60;;;;;;;;;;4996557;28;20224;-73
2022/05/27 04:40:57;;;;;;;9.87;2.90;;;;;;;;;;4973164;28;20219;-73
2022/05/27 04:43:22;;;;;;;11.73;2.93;;;;;;;;;;5018376;28;20254;-73
2022/05/27 04:45:48;;;;;;;6.67;2.40;;;;;;;;;;5017435;28;20714;-73
2022/05/27 04:48:14;;;;;;;8.23;2.80;;;;;;;;;;4980029;28;20942;-71
2022/05/27 04:50:42;;;;;;;10.37;3.10;;;;;;;;;;4987022;28;20254;-73
2022/05/27 04:53:10;;;;;;;9.73;2.70;;;;;;;;;;5019212;28;20224;-73
2022/05/27 04:55:35;;;;;;;7.13;2.90;;;;;;;;;;5002353;28;20277;-73
2022/05/27 04:58:01;;;;;;;11.63;2.83;;;;;;;;;;5002583;28;20215;-73
2022/05/27 05:00:28;;;;;;;6.13;2.47;;;;;;;;;;4988243;28;20234;-73
2022/05/27 05:02:54;;;;;;;7.60;2.60;;;;;;;;;;4994398;28;20749;-73
2022/05/27 05:05:21;;;;;;;9.83;3.17;;;;;;;;;;4975426;28;20299;-74
2022/05/27 05:07:49;;;;;;;11.73;3.00;;;;;;;;;;4999960;28;20224;-72
2022/05/27 05:10:16;;;;;;;6.37;2.47;;;;;;;;;;4980684;28;20219;-73
2022/05/27 05:12:45;;;;;;;6.00;2.53;;;;;;;;;;4974193;28;20246;-74
2022/05/27 05:15:11;;;;;;;8.63;3.07;;;;;;;;;;4992813;28;20224;-73
2022/05/27 05:17:38;;;;;;;9.77;2.77;;;;;;;;;;5034194;28;20238;-72
2022/05/27 05:20:05;;;;;;;11.43;2.70;;;;;;;;;;4971519;28;20736;-73
2022/05/27 05:22:33;;;;;;;8.40;2.83;;;;;;;;;;4984324;28;20223;-73
2022/05/27 05:24:59;;;;;;;9.57;2.60;;;;;;;;;;5016706;28;20315;-73
2022/05/27 05:27:25;;;;;;;11.13;2.97;;;;;;;;;;5001881;28;20220;-73
2022/05/27 05:29:52;;;;;;;8.83;3.10;;;;;;;;;;4998317;28;20226;-73
2022/05/27 05:32:19;;;;;;;7.77;2.87;;;;;;;;;;5009337;28;20248;-72
2022/05/27 05:34:45;;;;;;;11.73;2.87;;;;;;;;;;5028386;28;20255;-73
2022/05/27 05:37:15;;;;;;;6.20;2.47;;;;;;;;;;5025366;28;20220;-72
2022/05/27 05:39:44;;;;;;;9.03;2.43;;;;;;;;;;5029908;28;20303;-72
2022/05/27 05:42:09;;;;;;;10.63;2.57;;;;;;;;;;5014097;28;20217;-73
2022/05/27 05:44:35;;;;;;;7.03;2.90;;;;;;;;;;4969717;28;20285;-73
2022/05/27 05:47:00;;;;;;;5.00;2.20;;;;;;;;;;4996370;28;20647;-73
2022/05/27 05:49:26;;;;;;;5.87;2.33;;;;;;;;;;4989215;28;20259;-73
2022/05/27 05:51:57;;;;;;;9.40;2.30;;;;;;;;;;4986400;28;20216;-73
2022/05/27 05:54:28;;;;;;;7.22;2.33;;;;;;;;;;4990472;28;20969;-73
2022/05/27 05:56:54;;;;;;;6.97;2.10;;;;;;;;;;5016891;28;20235;-71
2022/05/27 05:59:22;;;;;;;7.53;2.20;;;;;;;;;;4982040;28;20226;-73
2022/05/27 06:01:48;;;;;;;6.03;1.80;;;;;;;;;;4982694;28;20654;-73
2022/05/27 06:04:16;;;;;;;6.87;2.47;;;;;;;;;;4997073;28;20304;-73
2022/05/27 06:06:44;;;;;;;6.03;2.10;;;;;;;;;;4981744;28;20235;-73
2022/05/27 06:09:10;;;;;;;9.10;2.63;;;;;;;;;;4995078;28;20714;-73
2022/05/27 06:11:38;;;;;;;7.53;2.07;;;;;;;;;;4981895;28;20230;-73
2022/05/27 06:14:04;;;;;;;8.93;2.20;;;;;;;;;;5002661;28;20240;-74
2022/05/27 06:16:29;;;;;;;5.82;2.10;;;;;;;;;;5025069;28;20220;-74
2022/05/27 06:18:55;;;;;;;6.47;2.10;;;;;;;;;;5017409;28;20691;-74
2022/05/27 06:21:23;;;;;;;7.20;1.90;;;;;;;;;;4994653;28;20236;-73
2022/05/27 06:23:56;;;;;;;4.73;1.97;;;;;;;;;;4999150;28;20253;-73
2022/05/27 06:26:22;;;;;;;7.55;2.03;;;;;;;;;;5023592;28;22021;-73
2022/05/27 06:34:23;;;;;;;7.05;1.95;;;;;;;;;;5021167;28;20283;-74
2022/05/27 06:37:01;;;;;;;4.13;1.85;;;;;;;;;;5009012;28;20304;-74
2022/05/27 06:39:27;;;;;;;9.15;2.20;;;;;;;;;;5008586;28;20836;-72
2022/05/27 06:41:52;;;;;;;5.22;1.73;;;;;;;;;;5010444;28;20255;-72
2022/05/27 06:44:24;;;;;;;6.55;1.70;;;;;;;;;;5012225;28;20216;-73
2022/05/27 06:46:51;;;;;;;5.32;1.80;;;;;;;;;;5010337;28;20235;-73
2022/05/27 06:49:25;;;;;;;4.90;1.87;;;;;;;;;;4973352;28;20261;-73
2022/05/27 06:51:53;;;;;;;6.93;1.90;;;;;;;;;;4976911;28;20866;-73
2022/05/27 06:54:22;;;;;;;6.00;2.10;;;;;;;;;;5008575;28;20685;-72
2022/05/27 06:56:52;;;;;;;8.23;2.38;;;;;;;;;;5037495;28;20262;-72
2022/05/27 06:59:19;;;;;;;5.13;2.17;;;;;;;;;;4984621;28;20717;-74
2022/05/27 07:01:45;;;;;;;9.02;2.10;;;;;;;;;;5021617;28;20230;-72
2022/05/27 07:04:13;;;;;;;6.28;1.92;;;;;;;;;;5014610;28;20224;-74
2022/05/27 07:06:43;;;;;;;8.43;2.20;;;;;;;;;;5012341;28;20223;-73
2022/05/27 07:09:18;;;;;;;9.00;2.07;;;;;;;;;;4983804;28;20220;-73
2022/05/27 07:11:47;;;;;;;9.90;2.33;;;;;;;;;;5019115;28;20248;-72
2022/05/27 07:14:13;;;;;;;7.32;2.25;;;;;;;;;;5039138;28;20227;-72
2022/05/27 07:16:40;;;;;;;8.45;2.55;;;;;;;;;;5004448;28;20223;-73
2022/05/27 07:19:06;;;;;;;7.30;2.20;;;;;;;;;;5009880;28;20229;-72
2022/05/27 07:21:33;;;;;;;6.07;2.00;;;;;;;;;;4990857;28;20667;-74
2022/05/27 07:23:59;;;;;;;8.93;1.88;;;;;;;;;;4978167;28;20234;-72
2022/05/27 07:26:24;;;;;;;6.35;2.08;;;;;;;;;;5012132;28;20223;-74
2022/05/27 07:28:54;;;;;;;7.75;2.10;;;;;;;;;;5019795;28;20220;-72
2022/05/27 07:31:19;;;;;;;10.13;2.25;;;;;;;;;;5003500;28;20220;-73
2022/05/27 07:33:47;;;;;;;6.32;1.92;;;;;;;;;;5007889;28;20239;-74
2022/05/27 07:36:20;;;;;;;5.32;2.13;;;;;;;;;;5008312;28;20310;-72
2022/05/27 07:39:15;;;;;;;7.25;1.85;;;;;;;;;;5009314;28;20767;-73
2022/05/27 07:41:40;;;;;;;7.53;2.20;;;;;;;;;;4997255;28;20290;-72
2022/05/27 07:44:06;;;;;;;5.03;2.13;;;;;;;;;;4996204;28;20295;-71
2022/05/27 07:46:32;;;;;;;9.38;2.58;;;;;;;;;;5016806;28;20311;-72
2022/05/27 07:48:58;;;;;;;6.82;2.03;;;;;;;;;;4994893;28;20211;-74
2022/05/27 07:51:26;;;;;;;7.38;2.13;;;;;;;;;;4990705;28;20224;-73
2022/05/27 07:53:55;;;;;;;5.90;2.28;;;;;;;;;;4990928;28;20216;-73
2022/05/27 07:56:28;;;;;;;6.88;2.08;;;;;;;;;;4970938;28;20573;-74
2022/05/27 07:58:53;;;;;;;5.40;1.95;;;;;;;;;;5033492;28;20233;-72
2022/05/27 08:01:19;;;;;;;7.25;2.10;;;;;;;;;;5025617;28;20232;-71
2022/05/27 08:03:47;;;;;;;10.23;2.45;;;;;;;;;;4987212;28;20351;-71
2022/05/27 08:06:12;;;;;;;7.07;2.05;;;;;;;;;;5030033;28;20262;-71
2022/05/27 08:08:38;;;;;;;8.77;2.30;;;;;;;;;;4991569;28;20235;-70
2022/05/27 08:11:06;;;;;;;8.57;2.40;;;;;;;;;;4993233;28;20224;-73
2022/05/27 08:13:31;;;;;;;6.72;2.10;;;;;;;;;;5015445;28;22273;-71
2022/05/27 08:15:59;;;;;;;6.97;2.40;;;;;;;;;;5023489;28;20298;-73
2022/05/27 08:18:24;;;;;;;7.05;1.88;;;;;;;;;;4981629;28;20236;-72
2022/05/27 08:20:50;;;;;;;8.15;2.30;;;;;;;;;;5029809;28;20911;-72
2022/05/27 08:23:15;;;;;;;7.22;2.50;;;;;;;;;;4998377;28;20297;-71
2022/05/27 08:25:43;;;;;;;6.85;2.03;;;;;;;;;;5005207;28;20234;-71
2022/05/27 08:28:09;;;;;;;7.25;1.98;;;;;;;;;;4984958;28;20232;-71
2022/05/27 08:30:35;;;;;;;7.65;2.20;;;;;;;;;;5017546;28;20646;-71
2022/05/27 08:33:01;;;;;;;6.57;2.50;;;;;;;;;;5020277;28;20225;-71
2022/05/27 08:38:17;;;;;;;7.45;2.20;;;;;;;;;;4998940;28;20222;-72
2022/05/27 08:41:15;;;;;;;5.55;2.05;;;;;;;;;;4989943;28;20228;-74
2022/05/27 08:44:06;;;;;;;8.07;2.05;;;;;;;;;;5015725;28;20224;-71
2022/05/27 08:46:50;;;;;;;9.38;2.50;;;;;;;;;;5032171;28;20227;-74
2022/05/27 08:49:19;;;;;;;7.20;2.13;;;;;;;;;;5002529;28;20651;-72
2022/05/27 08:51:53;;;;;;;10.30;2.42;;;;;;;;;;4999865;28;20225;-72
2022/05/27 08:54:24;;;;;;;8.32;2.30;;;;;;;;;;5003342;28;20321;-72
2022/05/27 08:59:59;;;;;;;6.03;1.93;;;;;;;;;;4995699;28;20256;-73
2022/05/27 09:02:39;;;;;;;6.88;2.05;;;;;;;;;;5010749;28;20219;-73
2022/05/27 09:05:36;;;;;;;5.07;1.90;;;;;;;;;;5020402;28;20258;-72
2022/05/27 09:08:04;;;;;;;9.45;2.30;;;;;;;;;;4983888;28;20224;-72
2022/05/27 09:10:51;;;;;;;8.25;1.88;;;;;;;;;;4996837;28;20612;-71
2022/05/27 09:13:19;;;;;;;5.40;2.28;;;;;;;;;;5015277;28;20278;-72
2022/05/27 09:16:09;;;;;;;8.65;2.58;;;;;;;;;;5018119;28;20220;-72
2022/05/27 09:18:40;;;;;;;5.25;1.92;;;;;;;;;;5015069;28;20220;-72
2022/05/27 09:21:29;;;;;;;8.02;2.25;;;;;;;;;;4974286;28;20232;-72
2022/05/27 09:24:18;;;;;;;8.13;2.45;;;;;;;;;;5007775;28;20232;-73
2022/05/27 09:26:48;;;;;;;6.05;2.15;;;;;;;;;;5033085;28;20697;-71
2022/05/27 09:29:28;;;;;;;6.45;2.25;;;;;;;;;;5015997;28;20224;-72
2022/05/27 09:32:06;;;;;;;10.02;2.25;;;;;;;;;;4996877;28;20290;-71
2022/05/27 09:34:33;;;;;;;9.38;2.40;;;;;;;;;;4999188;28;20227;-72
2022/05/27 09:37:03;;;;;;;5.25;2.00;;;;;;;;;;4991727;28;20220;-71
2022/05/27 09:39:28;;;;;;;7.15;2.20;;;;;;;;;;4980784;28;20309;-70
2022/05/27 09:42:30;;;;;;;8.65;2.30;;;;;;;;;;4979233;28;20212;-73
2022/05/27 09:44:59;;;;;;;6.35;2.15;;;;;;;;;;4997757;28;20705;-74
2022/05/27 09:47:30;;;;;;;6.25;2.03;;;;;;;;;;4988027;28;20235;-72
2022/05/27 09:50:03;;;;;;;7.03;2.17;;;;;;;;;;5003025;28;20316;-72
2022/05/27 09:52:31;;;;;;;7.35;2.47;;;;;;;;;;5002389;28;20219;-74
2022/05/27 09:54:59;;;;;;;7.53;2.03;;;;;;;;;;4988811;28;20233;-73
2022/05/27 09:57:32;;;;;;;8.18;2.65;;;;;;;;;;4983120;28;20706;-73
2022/05/27 10:00:04;;;;;;;6.13;2.30;;;;;;;;;;4979219;28;20264;-72
2022/05/27 10:02:34;;;;;;;6.10;2.38;;;;;;;;;;5012809;28;20437;-70
2022/05/27 10:05:14;;;;;;;8.35;2.10;;;;;;;;;;5021212;28;20634;-72
2022/05/27 10:07:45;;;;;;;9.98;2.70;;;;;;;;;;4988574;28;20322;-73
2022/05/27 10:10:32;;;;;;;9.43;3.03;;;;;;;;;;5020216;28;20259;-71
2022/05/27 10:13:17;;;;;;;7.68;2.45;;;;;;;;;;5038694;28;20225;-72
2022/05/27 10:15:42;;;;;;;9.75;2.55;;;;;;;;;;5000443;28;20772;-71
2022/05/27 10:18:23;;;;;;;7.38;2.45;;;;;;;;;;4999914;28;20222;-71
2022/05/27 10:21:02;;;;;;;8.23;2.75;;;;;;;;;;5007657;28;20326;-72
2022/05/27 10:23:34;;;;;;;10.15;2.75;;;;;;;;;;5014131;28;20223;-72
2022/05/27 10:26:23;;;;;;;9.60;2.58;;;;;;;;;;4968790;28;20220;-73
2022/05/27 10:29:13;;;;;;;8.55;2.53;;;;;;;;;;5017274;28;20216;-71
2022/05/27 10:31:51;;;;;;;12.10;2.70;;;;;;;;;;5012074;28;20234;-71
2022/05/27 10:34:49;;;;;;;6.88;2.30;;;;;;;;;;5009896;28;20231;-74
2022/05/27 10:37:37;;;;;;;10.23;2.33;;;;;;;;;;5001122;28;20286;-72
2022/05/27 10:40:09;;;;;;;7.57;2.00;;;;;;;;;;4998064;28;20376;-71
2022/05/27 10:42:47;;;;;;;6.47;2.08;;;;;;;;;;5010521;28;20603;-71
2022/05/27 10:45:29;;;;;;;5.60;2.00;;;;;;;;;;5024226;28;20211;-72
2022/05/27 10:48:19;;;;;;;6.32;2.20;;;;;;;;;;4988817;28;20275;-71
2022/05/27 10:50:56;;;;;;;7.10;2.35;;;;;;;;;;4997006;28;20315;-72
2022/05/27 10:53:42;;;;;;;7.82;2.15;;;;;;;;;;5019390;28;20227;-71
2022/05/27 10:56:10;;;;;;;5.38;1.98;;;;;;;;;;5019322;28;20232;-70
2022/05/27 11:04:53;;;;;;;8.10;2.38;;;;;;;;;;5023988;28;20223;-72
2022/05/27 11:07:55;;;;;;;7.18;2.10;;;;;;;;;;5010920;28;20222;-72
2022/05/27 11:10:44;;;;;;;6.32;1.80;;;;;;;;;;5015163;28;20223;-72
2022/05/27 11:16:16;;;;;;;8.25;1.85;;;;;;;;;;4998385;28;20237;-72
2022/05/27 11:18:54;;;;;;;5.57;1.88;;;;;;;;;;5014342;28;20226;-71
2022/05/27 11:21:21;;;;;;;6.75;2.08;;;;;;;;;;5017875;28;20222;-71
2022/05/27 11:24:10;;;;;;;5.57;2.20;;;;;;;;;;5038046;28;20230;-72
2022/05/27 11:27:10;;;;;;;7.57;2.40;;;;;;;;;;5001245;28;20285;-72
2022/05/27 11:29:52;;;;;;;6.28;2.17;;;;;;;;;;5001078;28;20255;-72
2022/05/27 11:32:55;;;;;;;5.45;2.33;;;;;;;;;;4978495;28;20758;-71
2022/05/27 11:35:20;;;;;;;9.52;2.42;;;;;;;;;;5029391;28;20211;-72
2022/05/27 11:37:49;;;;;;;5.93;2.00;;;;;;;;;;5014258;28;20224;-72
2022/05/27 11:40:32;;;;;;;5.55;2.17;;;;;;;;;;5039644;28;20281;-72
2022/05/27 11:43:21;;;;;;;5.78;1.90;;;;;;;;;;5037171;28;20227;-73
2022/05/27 11:46:17;;;;;;;8.10;2.10;;;;;;;;;;5007466;28;20235;-72
2022/05/27 11:49:01;;;;;;;5.63;1.88;;;;;;;;;;4982741;28;20231;-71
2022/05/27 11:51:58;;;;;;;4.82;1.67;;;;;;;;;;5014058;28;20245;-69
2022/05/27 11:54:36;;;;;;;6.82;2.03;;;;;;;;;;5014263;28;20227;-70
2022/05/27 11:57:05;;;;;;;8.32;2.03;;;;;;;;;;5006098;28;20256;-70
2022/05/27 11:59:40;;;;;;;6.72;1.88;;;;;;;;;;5012660;28;20236;-71
2022/05/27 12:02:52;;;;;;;5.88;2.20;;;;;;;;;;4998053;28;20239;-70
2022/05/27 12:05:23;;;;;;;7.40;2.28;;;;;;;;;;4973526;28;20247;-71
2022/05/27 12:08:24;;;;;;;4.78;1.60;;;;;;;;;;4973697;28;20247;-71
2022/05/27 12:11:28;;;;;;;6.03;1.83;;;;;;;;;;5032740;28;20604;-70
2022/05/27 12:14:02;;;;;;;8.25;2.08;;;;;;;;;;4964832;28;20827;-71
2022/05/27 12:16:37;;;;;;;4.90;1.75;;;;;;;;;;4976180;28;20227;-70
2022/05/27 12:19:15;;;;;;;6.28;2.10;;;;;;;;;;4983699;28;20328;-73
2022/05/27 12:21:43;;;;;;;7.00;1.90;;;;;;;;;;5014605;28;20236;-70
2022/05/27 12:24:27;;;;;;;6.13;2.20;;;;;;;;;;4973824;28;20303;-72
2022/05/27 12:26:56;;;;;;;8.27;2.10;;;;;;;;;;5004066;28;20220;-74
2022/05/27 12:29:22;;;;;;;7.53;2.00;;;;;;;;;;5018423;28;20328;-71
2022/05/27 12:31:52;;;;;;;6.05;2.13;;;;;;;;;;4982511;28;20225;-71
2022/05/27 12:34:34;;;;;;;6.50;2.17;;;;;;;;;;4994504;28;20224;-72
2022/05/27 12:37:17;;;;;;;9.20;2.42;;;;;;;;;;5003839;28;20658;-72
2022/05/27 12:39:43;;;;;;;7.20;2.20;;;;;;;;;;5008104;28;20231;-74
2022/05/27 12:42:09;;;;;;;6.95;2.30;;;;;;;;;;5000043;28;20224;-72
2022/05/27 12:44:37;;;;;;;8.05;2.25;;;;;;;;;;5021662;28;20635;-72
2022/05/27 12:47:05;;;;;;;6.93;2.20;;;;;;;;;;4983529;28;20698;-72
2022/05/27 12:49:44;;;;;;;7.82;2.30;;;;;;;;;;5000403;28;20625;-75
2022/05/27 12:52:28;;;;;;;9.57;2.10;;;;;;;;;;5000843;28;20693;-72
2022/05/27 12:54:54;;;;;;;6.55;1.88;;;;;;;;;;5013929;28;20231;-71
2022/05/27 13:00:55;;;;;;;6.50;2.00;;;;;;;;;;5024467;28;20266;-72
2022/05/27 13:03:44;;;;;;;7.82;1.98;;;;;;;;;;5015755;28;20277;-73
2022/05/27 13:06:12;;;;;;;5.93;2.10;;;;;;;;;;5002559;28;20306;-71
2022/05/27 13:08:47;;;;;;;5.38;1.70;;;;;;;;;;5034116;28;20315;-73
2022/05/27 13:11:21;;;;;;;9.23;2.00;;;;;;;;;;4990279;28;20211;-71
2022/05/27 13:13:46;;;;;;;4.32;1.95;;;;;;;;;;5015409;28;20582;-72
2022/05/27 13:16:36;;;;;;;5.93;1.60;;;;;;;;;;4972911;28;20231;-71
2022/05/27 13:19:08;;;;;;;6.03;1.90;;;;;;;;;;5027268;28;20220;-71
2022/05/27 13:21:39;;;;;;;5.75;1.95;;;;;;;;;;4990983;28;20717;-71
2022/05/27 13:24:30;;;;;;;5.97;1.90;;;;;;;;;;4996850;28;20700;-73
2022/05/27 13:27:08;;;;;;;5.05;1.92;;;;;;;;;;5001069;28;20215;-73
2022/05/27 13:29:44;;;;;;;5.55;2.00;;;;;;;;;;5007187;28;20614;-74
2022/05/27 13:32:15;;;;;;;9.20;1.73;;;;;;;;;;4985587;28;20215;-73
2022/05/27 13:34:43;;;;;;;5.70;1.77;;;;;;;;;;4995408;28;20213;-72
2022/05/27 13:37:42;;;;;;;4.25;1.73;;;;;;;;;;4987066;28;20218;-73
2022/05/27 13:40:12;;;;;;;5.10;1.77;;;;;;;;;;5000787;28;20303;-74
2022/05/27 13:42:45;;;;;;;4.93;1.83;;;;;;;;;;4986495;28;20301;-74
2022/05/27 13:45:15;;;;;;;7.38;1.83;;;;;;;;;;4995891;28;20226;-73
2022/05/27 13:47:44;;;;;;;5.90;2.03;;;;;;;;;;5005907;28;20230;-73
2022/05/27 13:50:39;;;;;;;5.10;1.67;;;;;;;;;;5004109;28;20557;-70
2022/05/27 13:53:25;;;;;;;6.57;1.85;;;;;;;;;;4996184;28;20359;-71
2022/05/27 13:55:55;;;;;;;13.68;2.40;;;;;;;;;;4992148;28;20351;-73
2022/05/27 13:58:26;;;;;;;6.75;2.00;;;;;;;;;;4996809;28;20215;-73
2022/05/27 14:00:54;;;;;;;8.65;2.00;;;;;;;;;;4991569;28;20314;-72
2022/05/27 14:03:41;;;;;;;6.72;2.13;;;;;;;;;;5000454;28;20302;-73
2022/05/27 14:06:07;;;;;;;6.20;1.83;;;;;;;;;;4990409;28;20305;-72
2022/05/27 14:08:40;;;;;;;5.60;1.98;;;;;;;;;;4986547;28;20266;-71
2022/05/27 14:11:21;;;;;;;5.60;1.80;;;;;;;;;;4983334;28;20294;-73
2022/05/27 14:13:54;;;;;;;4.43;1.52;;;;;;;;;;4977337;28;20223;-71
2022/05/27 14:16:30;;;;;;;6.22;1.63;;;;;;;;;;4999951;28;20220;-72
2022/05/27 14:18:57;;;;;;;7.15;1.50;;;;;;;;;;5001930;28;20229;-71
2022/05/27 14:24:20;;;;;;;5.18;1.77;;;;;;;;;;5022192;28;20219;-72
2022/05/27 14:26:48;;;;;;;4.60;1.55;;;;;;;;;;5012143;28;20217;-71
2022/05/27 14:29:14;;;;;;;6.18;1.70;;;;;;;;;;4962219;28;20220;-73
2022/05/27 14:31:43;;;;;;;8.35;1.88;;;;;;;;;;4995084;28;20220;-72
2022/05/27 14:34:11;;;;;;;10.70;2.15;;;;;;;;;;4978622;28;20224;-75
2022/05/27 14:36:48;;;;;;;5.45;1.67;;;;;;;;;;4997258;28;20315;-73
2022/05/27 14:39:14;;;;;;;7.82;2.03;;;;;;;;;;5004689;28;20258;-72
2022/05/27 14:41:42;;;;;;;5.82;2.00;;;;;;;;;;4969750;28;20254;-73
2022/05/27 14:44:22;;;;;;;6.07;2.03;;;;;;;;;;4973699;28;20231;-74
2022/05/27 14:47:09;;;;;;;9.63;1.70;;;;;;;;;;4997969;28;20312;-73
2022/05/27 14:49:40;;;;;;;8.68;2.20;;;;;;;;;;4983424;28;20240;-73
2022/05/27 14:52:15;;;;;;;8.55;2.00;;;;;;;;;;5031791;28;20232;-73
2022/05/27 14:54:46;;;;;;;6.55;1.80;;;;;;;;;;5002810;28;20591;-73
2022/05/27 14:57:53;;;;;;;5.82;1.60;;;;;;;;;;5004835;28;20216;-73
2022/05/27 15:00:22;;;;;;;6.88;2.13;;;;;;;;;;4940483;28;20238;-73
2022/05/27 15:02:49;;;;;;;7.88;2.00;;;;;;;;;;5018892;28;20308;-73
2022/05/27 15:05:27;;;;;;;8.77;1.70;;;;;;;;;;4988097;28;20698;-75
2022/05/27 15:07:52;;;;;;;8.70;2.20;;;;;;;;;;5031328;28;20221;-75
2022/05/27 15:10:29;;;;;;;6.17;2.03;;;;;;;;;;5013110;28;20726;-73
2022/05/27 15:12:55;;;;;;;6.53;1.80;;;;;;;;;;4994268;28;20219;-74
2022/05/27 15:15:41;;;;;;;4.07;1.63;;;;;;;;;;5024143;28;20761;-74
2022/05/27 15:18:11;;;;;;;5.43;2.00;;;;;;;;;;5030231;28;20238;-75
2022/05/27 15:20:52;;;;;;;4.28;1.88;;;;;;;;;;5006743;28;20232;-78
2022/05/27 15:23:27;;;;;;;8.50;2.00;;;;;;;;;;5012159;28;20311;-75
2022/05/27 15:33:05;;;;;;;8.65;2.25;;;;;;;;;;5006677;28;20224;-77
2022/05/27 15:34:13;;;;;;;7.60;1.95;;;;;;;;;;5017773;28;20231;-78
2022/05/27 15:36:39;;;;;;;4.63;1.90;;;;;;;;;;5023893;28;20224;-78
2022/05/27 15:39:07;;;;;;;7.57;1.92;;;;;;;;;;5005068;28;20299;-76
2022/05/27 15:41:32;;;;;;;6.35;1.80;;;;;;;;;;5011720;28;20776;-74
2022/05/27 15:43:58;;;;;;;8.15;3.53;;;;;;;;;;5022396;28;20219;-76
2022/05/27 15:46:24;;;;;;;6.57;1.80;;;;;;;;;;4999629;28;20303;-77
2022/05/27 15:48:52;;;;;;;5.43;1.83;;;;;;;;;;5016651;28;20646;-78
2022/05/27 15:51:20;;;;;;;5.93;1.70;;;;;;;;;;5015745;28;20243;-77
2022/05/27 15:53:45;;;;;;;3.35;1.42;;;;;;;;;;5012141;28;20246;-78
2022/05/27 15:56:13;;;;;;;6.10;1.75;;;;;;;;;;5038794;28;20303;-78